< < Back
Terminal Aerodrome Forecast


Current Version              Previous Versions:   1  2  3  4  5  6  7  8  9  

Terminal Aerodrome Forecast

365
FTUS44 KMOB 261754
TAFPNS
TAF
KPNS 261754Z 2618/2718 VRB04KT P6SM VCTS SCT035CB
     FM270100 25004KT P6SM FEW050 SCT200
     FM271500 31003KT P6SM SKC=

Latest METAR

190
SAUS70 KWBC 261900 RRJ
MTRPNS
METAR KPNS 261853Z 19010KT 10SM CLR 34/25 A3007 RMK AO2 LTG DSNT NE AND
E SLP182 T03440250


USA.gov is the U.S. government's official web portal to all federal, state and local government web resources and services.